Time;durP1;ratioP1;P1;durP2;ratioP2;P2;SDS_P1;SDS_P2;PMS_P1;PMS_P2;Temp;Humidity;BMP_temperature;BMP_pressure;BME280_temperature;BME280_humidity;BME280_pressure;Samples;Min_cycle;Max_cycle;Signal;HPM_P1;HPM_P2
2022/01/20 00:00:13;;;;;;;30.67;9.73;;;;;;;;;;4957602;28;20276;-64
2022/01/20 00:02:37;;;;;;;29.17;10.20;;;;;;;;;;4972423;28;20217;-64
2022/01/20 00:08:04;;;;;;;30.97;11.30;;;;;;;;;;4969771;28;20972;-64
2022/01/20 00:27:05;;;;;;;29.70;9.70;;;;;;;;;;4960305;28;20232;-63
2022/01/20 00:29:45;;;;;;;33.60;9.63;;;;;;;;;;4972379;28;20201;-63
2022/01/20 00:32:13;;;;;;;29.17;8.40;;;;;;;;;;4971264;28;20224;-63
2022/01/20 00:37:23;;;;;;;23.83;7.60;;;;;;;;;;4972884;28;20225;-64
2022/01/20 00:39:49;;;;;;;26.03;7.73;;;;;;;;;;4972972;28;20225;-63
2022/01/20 00:42:15;;;;;;;25.53;8.13;;;;;;;;;;4969228;28;21059;-63
2022/01/20 00:44:45;;;;;;;22.80;6.90;;;;;;;;;;4967257;28;20247;-64
2022/01/20 00:47:11;;;;;;;32.67;7.93;;;;;;;;;;4936551;28;21063;-63
2022/01/20 00:49:37;;;;;;;27.67;6.60;;;;;;;;;;4970972;28;20240;-63
2022/01/20 00:52:04;;;;;;;27.10;6.33;;;;;;;;;;4967063;28;20714;-64
2022/01/20 00:54:29;;;;;;;28.37;6.63;;;;;;;;;;4953979;28;20217;-63
2022/01/20 00:56:56;;;;;;;24.17;6.10;;;;;;;;;;4972186;28;20625;-64
2022/01/20 00:59:22;;;;;;;19.50;5.60;;;;;;;;;;4970987;28;20206;-64
2022/01/20 01:01:48;;;;;;;24.50;5.87;;;;;;;;;;4967235;28;20727;-64
2022/01/20 01:04:14;;;;;;;22.47;5.57;;;;;;;;;;4972620;28;20545;-63
2022/01/20 01:06:56;;;;;;;24.90;6.47;;;;;;;;;;4973012;28;20613;-64
2022/01/20 01:09:23;;;;;;;25.70;6.20;;;;;;;;;;4951412;28;20243;-64
2022/01/20 01:11:50;;;;;;;23.83;6.17;;;;;;;;;;4955428;28;20197;-64
2022/01/20 01:14:18;;;;;;;24.13;5.53;;;;;;;;;;4969944;28;20582;-64
2022/01/20 01:22:21;;;;;;;28.87;6.10;;;;;;;;;;4973581;28;20760;-64
2022/01/20 01:24:47;;;;;;;21.03;6.00;;;;;;;;;;4970936;28;20226;-64
2022/01/20 01:27:13;;;;;;;24.70;6.03;;;;;;;;;;4975095;28;20652;-65
2022/01/20 01:32:34;;;;;;;24.80;7.03;;;;;;;;;;4967168;28;20224;-65
2022/01/20 01:35:04;;;;;;;32.27;7.27;;;;;;;;;;4974907;28;20308;-64
2022/01/20 01:39:59;;;;;;;30.87;6.70;;;;;;;;;;4975443;28;20233;-65
2022/01/20 01:42:33;;;;;;;29.63;6.73;;;;;;;;;;4961453;28;20793;-64
2022/01/20 01:45:06;;;;;;;34.67;7.90;;;;;;;;;;4976513;28;20210;-64
2022/01/20 01:47:32;;;;;;;26.03;6.27;;;;;;;;;;4975199;28;20290;-64
2022/01/20 01:49:58;;;;;;;26.27;7.70;;;;;;;;;;4976572;28;20222;-63
2022/01/20 01:52:24;;;;;;;26.67;6.43;;;;;;;;;;4958466;28;20232;-64
2022/01/20 01:54:50;;;;;;;25.43;7.00;;;;;;;;;;4979224;28;20213;-65
2022/01/20 01:57:16;;;;;;;32.70;7.90;;;;;;;;;;4981543;28;20675;-63
2022/01/20 01:59:42;;;;;;;27.87;6.97;;;;;;;;;;4998312;28;20205;-63
2022/01/20 02:02:08;;;;;;;24.13;6.43;;;;;;;;;;4965589;28;20229;-64
2022/01/20 02:04:34;;;;;;;26.67;6.80;;;;;;;;;;4962873;28;20264;-64
2022/01/20 02:07:32;;;;;;;26.50;6.27;;;;;;;;;;4940094;28;20252;-64
2022/01/20 02:20:20;;;;;;;27.17;6.47;;;;;;;;;;4968279;28;20221;-64
2022/01/20 02:22:46;;;;;;;28.80;6.63;;;;;;;;;;4973731;28;20229;-63
2022/01/20 02:25:22;;;;;;;23.57;5.60;;;;;;;;;;4977207;28;20218;-63
2022/01/20 02:27:48;;;;;;;20.93;5.57;;;;;;;;;;4981643;28;20332;-64
2022/01/20 02:30:15;;;;;;;23.30;4.90;;;;;;;;;;4958239;28;20222;-63
2022/01/20 02:32:41;;;;;;;23.60;5.33;;;;;;;;;;4980478;28;20190;-63
2022/01/20 02:35:09;;;;;;;21.40;5.17;;;;;;;;;;4964219;28;20841;-64
2022/01/20 02:37:37;;;;;;;22.63;5.80;;;;;;;;;;4981787;28;20312;-64
2022/01/20 02:40:30;;;;;;;24.57;5.80;;;;;;;;;;4980226;28;20277;-63
2022/01/20 02:45:33;;;;;;;23.03;5.40;;;;;;;;;;4977765;28;20699;-64
2022/01/20 02:47:59;;;;;;;21.07;5.10;;;;;;;;;;4980444;28;20308;-64
2022/01/20 02:50:25;;;;;;;19.87;5.23;;;;;;;;;;4977542;28;20196;-63
2022/01/20 02:52:51;;;;;;;17.67;5.13;;;;;;;;;;4979306;28;20218;-64
2022/01/20 02:55:17;;;;;;;23.83;5.27;;;;;;;;;;4970274;28;20224;-64
2022/01/20 02:57:43;;;;;;;18.93;5.27;;;;;;;;;;4963100;28;20352;-64
2022/01/20 03:00:09;;;;;;;18.87;5.30;;;;;;;;;;4965200;28;20247;-65
2022/01/20 03:02:35;;;;;;;21.93;5.07;;;;;;;;;;4967562;28;20289;-64
2022/01/20 03:05:01;;;;;;;12.40;4.33;;;;;;;;;;4962094;28;22118;-65
2022/01/20 03:07:27;;;;;;;19.40;4.33;;;;;;;;;;4962733;28;20745;-64
2022/01/20 03:09:53;;;;;;;17.37;5.00;;;;;;;;;;4960157;28;20641;-64
2022/01/20 03:12:19;;;;;;;24.73;4.60;;;;;;;;;;4965553;28;20225;-65
2022/01/20 03:14:45;;;;;;;17.53;4.57;;;;;;;;;;4968409;28;20252;-64
2022/01/20 03:17:13;;;;;;;20.40;5.00;;;;;;;;;;4964030;28;20225;-64
2022/01/20 03:19:39;;;;;;;16.97;4.73;;;;;;;;;;4960528;28;20485;-64
2022/01/20 03:22:05;;;;;;;17.00;4.27;;;;;;;;;;4958103;28;20222;-64
2022/01/20 03:24:31;;;;;;;21.27;4.97;;;;;;;;;;4959489;28;20338;-64
2022/01/20 03:26:57;;;;;;;20.33;5.07;;;;;;;;;;4964969;28;20221;-64
2022/01/20 03:29:23;;;;;;;16.43;4.37;;;;;;;;;;4962249;28;20197;-64
2022/01/20 03:31:49;;;;;;;19.87;4.73;;;;;;;;;;4952912;28;20230;-64
2022/01/20 03:34:15;;;;;;;16.20;4.83;;;;;;;;;;4969801;28;20321;-64
2022/01/20 03:36:41;;;;;;;19.77;4.77;;;;;;;;;;4968358;28;20225;-64
2022/01/20 03:39:07;;;;;;;15.27;4.40;;;;;;;;;;4970219;28;20209;-64
2022/01/20 03:41:33;;;;;;;15.97;4.50;;;;;;;;;;4967224;28;20197;-64
2022/01/20 03:43:59;;;;;;;14.83;4.13;;;;;;;;;;4973043;28;20231;-64
2022/01/20 03:46:25;;;;;;;26.63;5.07;;;;;;;;;;4977065;28;20642;-65
2022/01/20 03:48:56;;;;;;;16.17;4.30;;;;;;;;;;4969966;28;20217;-64
2022/01/20 03:51:23;;;;;;;23.50;4.83;;;;;;;;;;4971226;28;20217;-63
2022/01/20 03:53:50;;;;;;;18.83;4.63;;;;;;;;;;4967567;28;20224;-65
2022/01/20 03:56:17;;;;;;;14.73;4.37;;;;;;;;;;4972971;28;20226;-63
2022/01/20 03:58:43;;;;;;;17.27;4.30;;;;;;;;;;4970697;28;20265;-63
2022/01/20 04:01:09;;;;;;;18.40;3.90;;;;;;;;;;4971191;28;20354;-65
2022/01/20 04:03:35;;;;;;;14.00;3.90;;;;;;;;;;4971288;28;21200;-64
2022/01/20 04:06:01;;;;;;;16.17;4.03;;;;;;;;;;4975072;28;20217;-65
2022/01/20 04:08:31;;;;;;;17.87;4.27;;;;;;;;;;4948076;28;20241;-65
2022/01/20 04:10:57;;;;;;;12.37;3.40;;;;;;;;;;4961976;28;20221;-63
2022/01/20 04:13:27;;;;;;;15.77;4.27;;;;;;;;;;4970495;28;20241;-65
2022/01/20 04:15:54;;;;;;;16.00;3.70;;;;;;;;;;4974432;28;20665;-65
2022/01/20 04:18:25;;;;;;;18.93;4.03;;;;;;;;;;4976863;28;20236;-63
2022/01/20 04:20:51;;;;;;;17.50;4.60;;;;;;;;;;4971331;28;20209;-65
2022/01/20 04:23:17;;;;;;;11.23;3.30;;;;;;;;;;4974963;28;20638;-64
2022/01/20 04:25:42;;;;;;;14.47;4.00;;;;;;;;;;4977153;28;20206;-64
2022/01/20 04:28:08;;;;;;;14.63;4.23;;;;;;;;;;4976586;28;20603;-64
2022/01/20 04:30:34;;;;;;;12.67;3.93;;;;;;;;;;4974660;28;20243;-63
2022/01/20 04:33:00;;;;;;;11.50;3.63;;;;;;;;;;4980883;28;20193;-63
2022/01/20 04:35:26;;;;;;;16.33;4.30;;;;;;;;;;4959246;28;20205;-64
2022/01/20 04:37:54;;;;;;;18.10;4.30;;;;;;;;;;4975810;28;21476;-64
2022/01/20 04:40:21;;;;;;;16.13;4.07;;;;;;;;;;4972400;28;20221;-63
2022/01/20 04:42:48;;;;;;;14.07;3.70;;;;;;;;;;4956528;28;20222;-63
2022/01/20 04:45:21;;;;;;;16.60;3.77;;;;;;;;;;4975553;28;21582;-63
2022/01/20 04:47:57;;;;;;;11.60;3.80;;;;;;;;;;4972316;28;20218;-64
2022/01/20 04:58:37;;;;;;;12.10;4.00;;;;;;;;;;4955506;28;20307;-64
2022/01/20 05:01:03;;;;;;;12.27;3.50;;;;;;;;;;4973221;28;20264;-65
2022/01/20 05:03:29;;;;;;;13.57;3.57;;;;;;;;;;4966148;28;20217;-63
2022/01/20 05:05:55;;;;;;;15.43;3.43;;;;;;;;;;4973482;28;20212;-64
2022/01/20 05:08:23;;;;;;;15.67;3.60;;;;;;;;;;4969783;28;20224;-65
2022/01/20 05:10:50;;;;;;;13.70;4.20;;;;;;;;;;4972886;28;20272;-63
2022/01/20 05:13:24;;;;;;;13.90;3.77;;;;;;;;;;4961997;28;20295;-64
2022/01/20 05:15:50;;;;;;;13.00;3.53;;;;;;;;;;4968408;28;20679;-64
2022/01/20 05:18:16;;;;;;;18.20;4.73;;;;;;;;;;4974973;28;20299;-65
2022/01/20 05:20:42;;;;;;;16.40;4.27;;;;;;;;;;4968450;28;20228;-62
2022/01/20 05:23:08;;;;;;;16.03;4.00;;;;;;;;;;4967556;28;20546;-64
2022/01/20 05:25:34;;;;;;;12.20;3.70;;;;;;;;;;4972967;28;20327;-64
2022/01/20 05:28:00;;;;;;;11.80;3.57;;;;;;;;;;4975691;28;20233;-64
2022/01/20 05:30:26;;;;;;;12.80;3.77;;;;;;;;;;4973541;28;20261;-64
2022/01/20 05:32:52;;;;;;;14.63;4.47;;;;;;;;;;4983190;28;20201;-62
2022/01/20 05:35:18;;;;;;;10.73;3.37;;;;;;;;;;4981257;28;20190;-64
2022/01/20 05:37:44;;;;;;;15.37;3.60;;;;;;;;;;4977594;28;20221;-64
2022/01/20 05:40:10;;;;;;;14.97;3.70;;;;;;;;;;4975105;28;20300;-63
2022/01/20 05:42:36;;;;;;;15.30;4.07;;;;;;;;;;4979672;28;20221;-64
2022/01/20 05:45:06;;;;;;;15.97;3.93;;;;;;;;;;4977656;28;20324;-63
2022/01/20 05:47:33;;;;;;;14.53;3.43;;;;;;;;;;4954120;28;20232;-63
2022/01/20 05:49:59;;;;;;;11.23;3.30;;;;;;;;;;4981454;28;20218;-63
2022/01/20 05:52:25;;;;;;;16.87;4.13;;;;;;;;;;4947419;28;20224;-65
2022/01/20 05:54:51;;;;;;;16.53;4.17;;;;;;;;;;4979673;28;20656;-64
2022/01/20 05:57:17;;;;;;;12.53;4.10;;;;;;;;;;4974198;28;20690;-66
2022/01/20 05:59:43;;;;;;;19.50;4.60;;;;;;;;;;4984583;28;24557;-65
2022/01/20 06:02:26;;;;;;;16.70;4.80;;;;;;;;;;4979152;28;20601;-64
2022/01/20 06:04:52;;;;;;;10.83;3.83;;;;;;;;;;4981278;28;20234;-65
2022/01/20 06:07:20;;;;;;;17.33;4.03;;;;;;;;;;4961472;28;20710;-65
2022/01/20 06:09:46;;;;;;;14.97;4.07;;;;;;;;;;4971997;28;20892;-63
2022/01/20 06:12:12;;;;;;;10.47;3.33;;;;;;;;;;4977495;28;20272;-67
2022/01/20 06:14:37;;;;;;;8.50;3.80;;;;;;;;;;4956576;28;20192;-64
2022/01/20 06:17:04;;;;;;;9.30;3.57;;;;;;;;;;4988770;28;20299;-63
2022/01/20 06:19:30;;;;;;;8.20;3.23;;;;;;;;;;4985697;28;20220;-64
2022/01/20 06:21:56;;;;;;;13.23;4.00;;;;;;;;;;4988253;28;20233;-62
2022/01/20 06:24:22;;;;;;;13.87;4.10;;;;;;;;;;4992260;28;20218;-62
2022/01/20 06:26:48;;;;;;;10.03;3.43;;;;;;;;;;4987665;28;20218;-62
2022/01/20 06:29:14;;;;;;;9.00;3.87;;;;;;;;;;4983652;28;20228;-62
2022/01/20 06:31:40;;;;;;;9.53;3.47;;;;;;;;;;4987405;28;20649;-64
2022/01/20 06:34:06;;;;;;;9.33;3.60;;;;;;;;;;4988739;28;20595;-63
2022/01/20 06:36:32;;;;;;;12.97;3.63;;;;;;;;;;4989526;28;20679;-63
2022/01/20 06:38:58;;;;;;;8.47;3.33;;;;;;;;;;4991652;28;20568;-62
2022/01/20 06:41:24;;;;;;;11.07;3.33;;;;;;;;;;4994365;28;20190;-62
2022/01/20 06:43:50;;;;;;;8.27;3.33;;;;;;;;;;4976382;28;20210;-63
2022/01/20 06:46:17;;;;;;;10.37;3.80;;;;;;;;;;4978616;28;20746;-62
2022/01/20 06:48:43;;;;;;;12.17;3.37;;;;;;;;;;4993313;28;20233;-62
2022/01/20 06:51:09;;;;;;;10.80;3.07;;;;;;;;;;4993942;28;20679;-62
2022/01/20 06:53:35;;;;;;;8.73;3.17;;;;;;;;;;4992032;28;20181;-62
2022/01/20 06:56:01;;;;;;;10.67;3.30;;;;;;;;;;4989782;28;20268;-62
2022/01/20 06:58:27;;;;;;;9.90;2.83;;;;;;;;;;4989399;28;20253;-62
2022/01/20 07:00:52;;;;;;;10.23;3.03;;;;;;;;;;4992333;28;20252;-62
2022/01/20 07:03:18;;;;;;;10.73;3.43;;;;;;;;;;4993215;28;20232;-62
2022/01/20 07:05:44;;;;;;;10.17;3.30;;;;;;;;;;4991817;28;20237;-63
2022/01/20 07:08:10;;;;;;;9.30;3.00;;;;;;;;;;4992342;28;20237;-63
2022/01/20 07:10:36;;;;;;;9.23;3.00;;;;;;;;;;4992895;28;20252;-62
2022/01/20 07:13:02;;;;;;;13.70;3.70;;;;;;;;;;4996919;28;20217;-61
2022/01/20 07:15:28;;;;;;;9.43;3.30;;;;;;;;;;4994001;28;20220;-63
2022/01/20 07:17:54;;;;;;;7.40;2.97;;;;;;;;;;4993678;28;20197;-64
2022/01/20 07:20:20;;;;;;;16.73;3.70;;;;;;;;;;4993144;28;20260;-64
2022/01/20 07:22:46;;;;;;;11.00;3.20;;;;;;;;;;4992083;28;20774;-64
2022/01/20 07:25:12;;;;;;;10.77;3.47;;;;;;;;;;4974857;28;20268;-63
2022/01/20 07:27:38;;;;;;;10.03;3.30;;;;;;;;;;4990873;28;20410;-64
2022/01/20 07:30:04;;;;;;;11.97;2.70;;;;;;;;;;4990387;28;20257;-63
2022/01/20 07:32:30;;;;;;;13.60;3.03;;;;;;;;;;4990809;28;20281;-63
2022/01/20 07:34:56;;;;;;;10.57;3.03;;;;;;;;;;4975381;28;20230;-64
2022/01/20 07:37:22;;;;;;;13.20;3.03;;;;;;;;;;4989963;28;20217;-63
2022/01/20 07:39:48;;;;;;;9.37;2.93;;;;;;;;;;4987700;28;20225;-63
2022/01/20 07:42:14;;;;;;;10.47;2.93;;;;;;;;;;4991555;28;20241;-64
2022/01/20 07:44:40;;;;;;;11.83;3.13;;;;;;;;;;4991685;28;20193;-64
2022/01/20 07:47:06;;;;;;;12.03;2.90;;;;;;;;;;4989747;28;20221;-63
2022/01/20 07:49:32;;;;;;;14.40;2.90;;;;;;;;;;4993540;28;20283;-64
2022/01/20 07:51:58;;;;;;;13.63;2.87;;;;;;;;;;4992249;28;20221;-63
2022/01/20 07:54:24;;;;;;;7.90;2.77;;;;;;;;;;4993160;28;20220;-63
2022/01/20 07:56:50;;;;;;;11.73;2.60;;;;;;;;;;4992161;28;20204;-63
2022/01/20 07:59:16;;;;;;;12.80;2.77;;;;;;;;;;4992250;28;20233;-64
2022/01/20 08:01:42;;;;;;;12.00;3.10;;;;;;;;;;4977863;28;20351;-62
2022/01/20 08:04:08;;;;;;;14.67;3.10;;;;;;;;;;4993140;28;20281;-63
2022/01/20 08:06:34;;;;;;;14.23;3.07;;;;;;;;;;4989012;28;20312;-62
2022/01/20 08:09:00;;;;;;;14.20;3.17;;;;;;;;;;4989710;28;20182;-63
2022/01/20 08:11:26;;;;;;;19.83;4.30;;;;;;;;;;4991871;28;21747;-65
2022/01/20 08:13:53;;;;;;;11.17;3.10;;;;;;;;;;4992695;28;20218;-63
2022/01/20 08:16:19;;;;;;;12.53;3.07;;;;;;;;;;4989767;28;20244;-63
2022/01/20 08:18:44;;;;;;;14.00;3.50;;;;;;;;;;4975443;28;20213;-63
2022/01/20 08:21:10;;;;;;;7.90;3.23;;;;;;;;;;4973653;28;20275;-63
2022/01/20 08:23:36;;;;;;;15.67;4.10;;;;;;;;;;4975634;28;20186;-63
2022/01/20 08:26:02;;;;;;;10.97;2.90;;;;;;;;;;4992675;28;20237;-63
2022/01/20 08:28:28;;;;;;;13.67;3.47;;;;;;;;;;4992679;28;20272;-63
2022/01/20 08:30:54;;;;;;;10.27;3.23;;;;;;;;;;4989981;28;20744;-63
2022/01/20 08:33:20;;;;;;;13.10;3.40;;;;;;;;;;4992946;28;20228;-64
2022/01/20 08:35:46;;;;;;;14.03;3.40;;;;;;;;;;4988136;28;22786;-64
2022/01/20 08:38:12;;;;;;;15.10;3.33;;;;;;;;;;4975492;28;20225;-63
2022/01/20 08:40:38;;;;;;;10.93;3.23;;;;;;;;;;4989918;28;20224;-62
2022/01/20 08:43:06;;;;;;;17.67;3.70;;;;;;;;;;4967245;28;20229;-61
2022/01/20 08:45:33;;;;;;;17.40;3.50;;;;;;;;;;4985422;28;20312;-63
2022/01/20 08:47:59;;;;;;;15.47;4.13;;;;;;;;;;4991836;28;20233;-64
2022/01/20 08:50:25;;;;;;;15.23;3.77;;;;;;;;;;4993777;28;20766;-63
2022/01/20 08:52:52;;;;;;;12.97;3.43;;;;;;;;;;4969814;28;20237;-63
2022/01/20 08:55:17;;;;;;;15.10;3.33;;;;;;;;;;4990673;28;20244;-63
2022/01/20 08:57:44;;;;;;;17.30;3.87;;;;;;;;;;4990782;28;20225;-64
2022/01/20 09:00:10;;;;;;;16.57;3.53;;;;;;;;;;4992659;28;20713;-63
2022/01/20 09:02:36;;;;;;;10.00;3.37;;;;;;;;;;4993293;28;21114;-62
2022/01/20 09:05:03;;;;;;;11.27;3.50;;;;;;;;;;4991259;28;20268;-62
2022/01/20 09:07:29;;;;;;;10.23;2.87;;;;;;;;;;4988433;28;20280;-63
2022/01/20 09:09:56;;;;;;;16.17;3.40;;;;;;;;;;4988783;28;20384;-63
2022/01/20 09:17:45;;;;;;;6.90;2.40;;;;;;;;;;4990107;28;20325;-63
2022/01/20 09:20:12;;;;;;;7.97;2.60;;;;;;;;;;4991677;28;20312;-64
2022/01/20 09:22:38;;;;;;;8.17;2.10;;;;;;;;;;4995870;28;20268;-63
2022/01/20 09:25:04;;;;;;;5.53;1.90;;;;;;;;;;4989187;28;20312;-64
2022/01/20 09:27:30;;;;;;;7.80;2.30;;;;;;;;;;4988234;28;20244;-63
2022/01/20 09:29:56;;;;;;;6.03;1.80;;;;;;;;;;4974814;28;20573;-63
2022/01/20 09:32:25;;;;;;;4.90;1.90;;;;;;;;;;4992187;28;20272;-63
2022/01/20 09:34:51;;;;;;;6.27;1.80;;;;;;;;;;4993552;28;20324;-62
2022/01/20 09:37:17;;;;;;;6.47;1.90;;;;;;;;;;4988864;28;20217;-63
2022/01/20 09:39:43;;;;;;;4.37;2.00;;;;;;;;;;4992323;28;20217;-63
2022/01/20 09:42:09;;;;;;;7.00;2.23;;;;;;;;;;4994081;28;20243;-62
2022/01/20 09:44:35;;;;;;;6.63;2.30;;;;;;;;;;4991228;28;20197;-63
2022/01/20 09:47:01;;;;;;;6.83;2.10;;;;;;;;;;4990206;28;20740;-62
2022/01/20 09:49:27;;;;;;;8.03;2.23;;;;;;;;;;4993193;28;20218;-63
2022/01/20 09:51:53;;;;;;;5.90;1.93;;;;;;;;;;4989904;28;20240;-62
2022/01/20 09:54:19;;;;;;;8.03;1.90;;;;;;;;;;4977026;28;20225;-63
2022/01/20 09:56:45;;;;;;;6.63;1.93;;;;;;;;;;4989751;28;20268;-63
2022/01/20 09:59:11;;;;;;;9.80;2.47;;;;;;;;;;4974948;28;20236;-63
2022/01/20 10:01:37;;;;;;;10.87;2.43;;;;;;;;;;4978468;28;20240;-63
2022/01/20 10:04:03;;;;;;;5.90;2.00;;;;;;;;;;4992605;28;20714;-63
2022/01/20 10:06:29;;;;;;;3.93;1.87;;;;;;;;;;4993601;28;20227;-63
2022/01/20 10:08:59;;;;;;;9.70;2.87;;;;;;;;;;4993650;28;20288;-63
2022/01/20 10:11:25;;;;;;;8.00;2.43;;;;;;;;;;4992007;28;20221;-63
2022/01/20 10:13:51;;;;;;;5.50;2.00;;;;;;;;;;4991044;28;20310;-62
2022/01/20 10:16:17;;;;;;;11.10;2.20;;;;;;;;;;4992354;28;20222;-64
2022/01/20 10:18:46;;;;;;;11.23;2.30;;;;;;;;;;4993879;28;20233;-63
2022/01/20 10:21:12;;;;;;;10.07;2.43;;;;;;;;;;4993256;28;20255;-63
2022/01/20 10:23:42;;;;;;;11.07;2.00;;;;;;;;;;4999902;28;20217;-64
2022/01/20 10:26:08;;;;;;;9.93;2.37;;;;;;;;;;4994033;28;20229;-63
2022/01/20 10:28:52;;;;;;;10.83;2.20;;;;;;;;;;4992027;28;20393;-63
2022/01/20 10:31:19;;;;;;;7.97;2.17;;;;;;;;;;4992402;28;20221;-64
2022/01/20 10:33:46;;;;;;;11.57;2.53;;;;;;;;;;4991416;28;20228;-64
2022/01/20 10:36:12;;;;;;;12.67;2.57;;;;;;;;;;4991209;28;20200;-65
2022/01/20 10:38:48;;;;;;;8.63;2.60;;;;;;;;;;4991204;28;20194;-64
2022/01/20 10:41:14;;;;;;;9.20;2.30;;;;;;;;;;4994232;28;20712;-64
2022/01/20 10:43:40;;;;;;;7.53;2.53;;;;;;;;;;4990563;28;20214;-64
2022/01/20 10:46:08;;;;;;;6.23;2.33;;;;;;;;;;4993502;28;20908;-63
2022/01/20 10:48:33;;;;;;;9.93;2.70;;;;;;;;;;4993329;28;20241;-63
2022/01/20 10:50:59;;;;;;;8.53;2.30;;;;;;;;;;4991257;28;20201;-63
2022/01/20 10:53:25;;;;;;;7.80;2.40;;;;;;;;;;4973289;28;20196;-62
2022/01/20 10:55:52;;;;;;;11.13;3.27;;;;;;;;;;4988660;28;22883;-64
2022/01/20 10:58:22;;;;;;;8.30;2.63;;;;;;;;;;4991250;28;20275;-64
2022/01/20 11:00:49;;;;;;;12.60;2.43;;;;;;;;;;4988591;28;20229;-63
2022/01/20 11:03:15;;;;;;;9.67;2.47;;;;;;;;;;4989042;28;20651;-63
2022/01/20 11:05:41;;;;;;;12.40;3.10;;;;;;;;;;4993464;28;20542;-64
2022/01/20 11:08:08;;;;;;;9.40;2.67;;;;;;;;;;4992027;28;20225;-63
2022/01/20 11:10:33;;;;;;;7.13;2.53;;;;;;;;;;4991900;28;20217;-63
2022/01/20 11:12:59;;;;;;;7.87;2.60;;;;;;;;;;4996512;28;20214;-63
2022/01/20 11:15:28;;;;;;;9.30;2.50;;;;;;;;;;4990089;28;20244;-63
2022/01/20 11:17:54;;;;;;;11.63;2.70;;;;;;;;;;4989990;28;20201;-63
2022/01/20 11:20:22;;;;;;;6.80;2.40;;;;;;;;;;4973854;28;20812;-64
2022/01/20 11:22:50;;;;;;;8.57;3.07;;;;;;;;;;4988894;28;20218;-63
2022/01/20 11:25:16;;;;;;;8.80;2.77;;;;;;;;;;4992400;28;20225;-63
2022/01/20 11:27:43;;;;;;;10.03;2.63;;;;;;;;;;4974443;28;20236;-64
2022/01/20 11:30:38;;;;;;;8.83;2.53;;;;;;;;;;4975656;28;20197;-64
2022/01/20 11:33:27;;;;;;;11.63;2.93;;;;;;;;;;4987306;28;20335;-63
2022/01/20 11:35:56;;;;;;;8.60;2.90;;;;;;;;;;4989448;28;20201;-64
2022/01/20 11:38:23;;;;;;;12.90;3.20;;;;;;;;;;4989401;28;20194;-64
2022/01/20 11:40:49;;;;;;;10.40;3.03;;;;;;;;;;4992539;28;20284;-63
2022/01/20 11:43:15;;;;;;;10.10;2.90;;;;;;;;;;4990670;28;20217;-63
2022/01/20 11:45:51;;;;;;;8.67;2.80;;;;;;;;;;4991065;28;21013;-63
2022/01/20 11:48:18;;;;;;;12.90;3.23;;;;;;;;;;4990039;28;20283;-64
2022/01/20 11:50:44;;;;;;;10.53;2.47;;;;;;;;;;4987901;28;20197;-63
2022/01/20 11:53:13;;;;;;;14.47;3.30;;;;;;;;;;4989811;28;20698;-64
2022/01/20 11:55:43;;;;;;;10.13;2.67;;;;;;;;;;4987916;28;20222;-65
2022/01/20 11:58:12;;;;;;;8.97;2.53;;;;;;;;;;4984540;28;20351;-63
2022/01/20 12:00:38;;;;;;;11.20;2.60;;;;;;;;;;4990219;28;20730;-63
2022/01/20 12:03:11;;;;;;;8.53;2.23;;;;;;;;;;4987399;28;20719;-63
2022/01/20 12:05:37;;;;;;;7.27;3.13;;;;;;;;;;4990867;28;20274;-64
2022/01/20 12:08:06;;;;;;;8.13;2.70;;;;;;;;;;4993152;28;20781;-63
2022/01/20 12:10:32;;;;;;;9.33;2.60;;;;;;;;;;4993295;28;20210;-62
2022/01/20 12:13:05;;;;;;;8.50;2.60;;;;;;;;;;4994114;28;20216;-64
2022/01/20 12:15:31;;;;;;;10.23;3.33;;;;;;;;;;4994085;28;20214;-63
2022/01/20 12:17:58;;;;;;;9.03;2.67;;;;;;;;;;4991775;28;20301;-63
2022/01/20 12:20:24;;;;;;;12.87;3.40;;;;;;;;;;4997122;28;20201;-63
2022/01/20 12:22:50;;;;;;;10.47;3.10;;;;;;;;;;4989177;28;20218;-64
2022/01/20 12:25:29;;;;;;;13.97;2.90;;;;;;;;;;4985350;28;20218;-63
2022/01/20 12:28:02;;;;;;;9.83;3.17;;;;;;;;;;4989515;28;20327;-63
2022/01/20 12:30:28;;;;;;;7.63;2.90;;;;;;;;;;4988549;28;20351;-63
2022/01/20 12:33:08;;;;;;;9.50;3.00;;;;;;;;;;4989806;28;20225;-63
2022/01/20 12:35:38;;;;;;;7.27;2.50;;;;;;;;;;4990768;28;20730;-63
2022/01/20 12:38:33;;;;;;;8.20;2.80;;;;;;;;;;4982021;28;20222;-63
2022/01/20 12:41:00;;;;;;;10.33;2.70;;;;;;;;;;4972569;28;20723;-61
2022/01/20 12:43:45;;;;;;;12.53;3.30;;;;;;;;;;4986247;28;20702;-63
2022/01/20 12:46:14;;;;;;;8.60;2.77;;;;;;;;;;4985538;28;20336;-63
2022/01/20 12:48:50;;;;;;;11.57;3.17;;;;;;;;;;4985823;28;20252;-63
2022/01/20 12:51:16;;;;;;;11.87;2.73;;;;;;;;;;4969655;28;20276;-62
2022/01/20 12:53:43;;;;;;;12.33;3.47;;;;;;;;;;4983030;28;20205;-63
2022/01/20 12:56:10;;;;;;;9.93;3.03;;;;;;;;;;4986355;28;20753;-63
2022/01/20 12:58:46;;;;;;;13.03;3.23;;;;;;;;;;4987923;28;20252;-62
2022/01/20 13:01:12;;;;;;;12.13;3.03;;;;;;;;;;4982230;28;20225;-63
2022/01/20 13:03:39;;;;;;;6.50;2.50;;;;;;;;;;4985678;28;20245;-63
2022/01/20 13:06:05;;;;;;;10.87;2.93;;;;;;;;;;4987795;28;20678;-63
2022/01/20 13:08:35;;;;;;;11.50;2.30;;;;;;;;;;4967982;28;20245;-63
2022/01/20 13:11:03;;;;;;;9.83;2.50;;;;;;;;;;4980106;28;20323;-63
2022/01/20 13:13:29;;;;;;;6.97;2.90;;;;;;;;;;4986461;28;20239;-62
2022/01/20 13:15:54;;;;;;;10.67;2.87;;;;;;;;;;4984669;28;20221;-62
2022/01/20 13:18:20;;;;;;;10.57;3.40;;;;;;;;;;4983449;28;20214;-63
2022/01/20 13:20:58;;;;;;;10.57;2.80;;;;;;;;;;4978354;28;20213;-63
2022/01/20 13:26:02;;;;;;;6.93;2.70;;;;;;;;;;4957159;28;20218;-63
2022/01/20 13:28:28;;;;;;;9.83;2.90;;;;;;;;;;4979534;28;20236;-63
2022/01/20 13:30:54;;;;;;;10.63;3.43;;;;;;;;;;4986158;28;21103;-63
2022/01/20 13:33:20;;;;;;;10.90;2.90;;;;;;;;;;4985512;28;20714;-63
2022/01/20 13:36:01;;;;;;;8.13;2.57;;;;;;;;;;4980142;28;20663;-64
2022/01/20 13:38:34;;;;;;;10.83;2.90;;;;;;;;;;4982204;28;20750;-62
2022/01/20 13:41:06;;;;;;;10.77;2.63;;;;;;;;;;4981391;28;20352;-64
2022/01/20 13:46:20;;;;;;;8.40;2.60;;;;;;;;;;4981566;28;20356;-64
2022/01/20 13:48:46;;;;;;;8.10;2.97;;;;;;;;;;4981868;28;20228;-63
2022/01/20 13:51:15;;;;;;;11.73;3.03;;;;;;;;;;4979552;28;20239;-65
2022/01/20 13:53:41;;;;;;;8.33;2.60;;;;;;;;;;4963413;28;20186;-63
2022/01/20 13:56:10;;;;;;;7.90;2.93;;;;;;;;;;4976273;28;20505;-63
2022/01/20 13:58:39;;;;;;;7.47;2.67;;;;;;;;;;4973020;28;20316;-63
2022/01/20 14:01:08;;;;;;;11.97;2.60;;;;;;;;;;4978532;28;20229;-64
2022/01/20 14:03:34;;;;;;;8.40;3.00;;;;;;;;;;4980993;28;20598;-63
2022/01/20 14:06:00;;;;;;;11.73;2.60;;;;;;;;;;4978302;28;20233;-63
2022/01/20 14:08:26;;;;;;;12.73;2.90;;;;;;;;;;4982106;28;20213;-63
2022/01/20 14:10:52;;;;;;;11.00;2.90;;;;;;;;;;4977897;28;20484;-63
2022/01/20 14:13:18;;;;;;;11.70;3.07;;;;;;;;;;4976989;28;25012;-63
2022/01/20 14:15:44;;;;;;;11.03;2.80;;;;;;;;;;4982655;28;20225;-64
2022/01/20 14:18:10;;;;;;;6.87;2.07;;;;;;;;;;4969755;28;20687;-63
2022/01/20 14:20:36;;;;;;;7.67;2.20;;;;;;;;;;4976901;28;20210;-63
2022/01/20 14:23:03;;;;;;;9.23;2.47;;;;;;;;;;4976416;28;20750;-63
2022/01/20 14:25:30;;;;;;;9.30;2.23;;;;;;;;;;4977379;28;20222;-62
2022/01/20 14:27:56;;;;;;;8.80;2.37;;;;;;;;;;4984013;28;20745;-63
2022/01/20 14:30:22;;;;;;;10.53;2.43;;;;;;;;;;4980701;28;20283;-63
2022/01/20 14:32:48;;;;;;;10.50;2.40;;;;;;;;;;4983757;28;20199;-62
2022/01/20 14:35:14;;;;;;;11.40;2.70;;;;;;;;;;4984398;28;20221;-61
2022/01/20 14:37:40;;;;;;;6.47;2.30;;;;;;;;;;4982845;28;20217;-62
2022/01/20 14:40:07;;;;;;;6.73;2.30;;;;;;;;;;4981779;28;20283;-64
2022/01/20 14:42:33;;;;;;;7.13;2.50;;;;;;;;;;4978525;28;20479;-63
2022/01/20 14:44:58;;;;;;;12.83;2.50;;;;;;;;;;4958582;28;20236;-63
2022/01/20 14:47:24;;;;;;;12.93;3.23;;;;;;;;;;4977369;28;20209;-63
2022/01/20 14:49:50;;;;;;;7.27;2.43;;;;;;;;;;4975071;28;20319;-63
2022/01/20 14:52:16;;;;;;;6.90;2.70;;;;;;;;;;4982274;28;20221;-63
2022/01/20 14:54:42;;;;;;;7.60;2.60;;;;;;;;;;4980684;28;20275;-63
2022/01/20 14:57:08;;;;;;;5.00;2.30;;;;;;;;;;4979775;28;20208;-62
2022/01/20 14:59:35;;;;;;;9.10;2.57;;;;;;;;;;4985314;28;20621;-63
2022/01/20 15:02:01;;;;;;;5.27;2.20;;;;;;;;;;4982271;28;20221;-64
2022/01/20 15:04:53;;;;;;;9.47;2.40;;;;;;;;;;4972572;28;20236;-64
2022/01/20 15:07:19;;;;;;;10.93;2.60;;;;;;;;;;4963167;28;20234;-63
2022/01/20 15:09:47;;;;;;;6.43;2.10;;;;;;;;;;4959416;28;25106;-63
2022/01/20 15:12:13;;;;;;;8.40;2.33;;;;;;;;;;4961261;28;20234;-64
2022/01/20 15:14:39;;;;;;;6.67;2.07;;;;;;;;;;4959021;28;20261;-63
2022/01/20 15:17:05;;;;;;;8.07;2.37;;;;;;;;;;4962013;28;20237;-63
2022/01/20 15:19:31;;;;;;;10.53;2.50;;;;;;;;;;4963992;28;20532;-63
2022/01/20 15:21:57;;;;;;;11.80;2.43;;;;;;;;;;4959202;28;20230;-63
2022/01/20 15:24:23;;;;;;;7.07;2.67;;;;;;;;;;4963008;28;20238;-63
2022/01/20 15:26:49;;;;;;;7.50;2.43;;;;;;;;;;4967396;28;20207;-62
2022/01/20 15:29:15;;;;;;;7.53;2.53;;;;;;;;;;4965991;28;20277;-63
2022/01/20 15:31:41;;;;;;;11.33;3.17;;;;;;;;;;4963036;28;20280;-63
2022/01/20 15:34:14;;;;;;;11.87;3.53;;;;;;;;;;4963691;28;20222;-63
2022/01/20 15:36:40;;;;;;;10.67;2.97;;;;;;;;;;4945621;28;20222;-62
2022/01/20 15:39:07;;;;;;;9.37;2.80;;;;;;;;;;4965390;28;20534;-61